sensor_id;sensor_type;location;lat;lon;timestamp;P1;durP1;ratioP1;P2;durP2;ratioP2
12760;SDS011;6444;49.742;6.114;2023-12-14T00:01:31;18.83;;;12.32;;
12760;SDS011;6444;49.742;6.114;2023-12-14T00:03:57;18.30;;;11.77;;
12760;SDS011;6444;49.742;6.114;2023-12-14T00:06:24;17.53;;;10.87;;
12760;SDS011;6444;49.742;6.114;2023-12-14T00:08:50;18.37;;;11.90;;
12760;SDS011;6444;49.742;6.114;2023-12-14T00:11:18;17.60;;;11.50;;
12760;SDS011;6444;49.742;6.114;2023-12-14T00:13:44;16.08;;;11.10;;
12760;SDS011;6444;49.742;6.114;2023-12-14T00:16:11;17.80;;;11.97;;
12760;SDS011;6444;49.742;6.114;2023-12-14T00:18:38;21.60;;;13.17;;
12760;SDS011;6444;49.742;6.114;2023-12-14T00:21:04;18.65;;;12.07;;
12760;SDS011;6444;49.742;6.114;2023-12-14T00:23:31;19.27;;;12.23;;
12760;SDS011;6444;49.742;6.114;2023-12-14T00:25:58;21.37;;;12.50;;
12760;SDS011;6444;49.742;6.114;2023-12-14T00:28:25;20.73;;;12.67;;
12760;SDS011;6444;49.742;6.114;2023-12-14T00:30:52;21.77;;;12.53;;
12760;SDS011;6444;49.742;6.114;2023-12-14T00:33:18;25.60;;;14.10;;
12760;SDS011;6444;49.742;6.114;2023-12-14T00:35:45;22.20;;;12.57;;
12760;SDS011;6444;49.742;6.114;2023-12-14T00:38:12;21.67;;;12.65;;
12760;SDS011;6444;49.742;6.114;2023-12-14T00:40:38;22.10;;;12.93;;
12760;SDS011;6444;49.742;6.114;2023-12-14T00:43:05;21.83;;;12.03;;
12760;SDS011;6444;49.742;6.114;2023-12-14T00:45:32;22.15;;;12.88;;
12760;SDS011;6444;49.742;6.114;2023-12-14T00:47:59;21.30;;;13.00;;
12760;SDS011;6444;49.742;6.114;2023-12-14T00:50:25;26.37;;;13.00;;
12760;SDS011;6444;49.742;6.114;2023-12-14T00:52:52;23.67;;;12.67;;
12760;SDS011;6444;49.742;6.114;2023-12-14T00:55:19;23.60;;;13.30;;
12760;SDS011;6444;49.742;6.114;2023-12-14T00:57:45;25.33;;;13.55;;
12760;SDS011;6444;49.742;6.114;2023-12-14T01:00:12;23.62;;;13.40;;
12760;SDS011;6444;49.742;6.114;2023-12-14T01:02:39;22.53;;;13.70;;
12760;SDS011;6444;49.742;6.114;2023-12-14T01:05:06;21.53;;;13.70;;
12760;SDS011;6444;49.742;6.114;2023-12-14T01:07:33;26.67;;;14.23;;
12760;SDS011;6444;49.742;6.114;2023-12-14T01:10:00;22.93;;;14.23;;
12760;SDS011;6444;49.742;6.114;2023-12-14T01:12:27;22.75;;;14.73;;
12760;SDS011;6444;49.742;6.114;2023-12-14T01:14:54;21.37;;;13.68;;
12760;SDS011;6444;49.742;6.114;2023-12-14T01:17:20;25.77;;;14.68;;
12760;SDS011;6444;49.742;6.114;2023-12-14T01:19:47;26.55;;;15.52;;
12760;SDS011;6444;49.742;6.114;2023-12-14T01:22:14;28.35;;;15.00;;
12760;SDS011;6444;49.742;6.114;2023-12-14T01:24:40;23.83;;;13.83;;
12760;SDS011;6444;49.742;6.114;2023-12-14T01:27:07;25.43;;;14.13;;
12760;SDS011;6444;49.742;6.114;2023-12-14T01:29:34;20.93;;;13.67;;
12760;SDS011;6444;49.742;6.114;2023-12-14T01:32:01;22.30;;;14.67;;
12760;SDS011;6444;49.742;6.114;2023-12-14T01:34:28;26.17;;;14.00;;
12760;SDS011;6444;49.742;6.114;2023-12-14T01:36:54;22.95;;;13.02;;
12760;SDS011;6444;49.742;6.114;2023-12-14T01:39:21;20.13;;;13.23;;
12760;SDS011;6444;49.742;6.114;2023-12-14T01:41:47;25.30;;;14.33;;
12760;SDS011;6444;49.742;6.114;2023-12-14T01:44:14;28.08;;;15.48;;
12760;SDS011;6444;49.742;6.114;2023-12-14T01:46:41;27.63;;;15.07;;
12760;SDS011;6444;49.742;6.114;2023-12-14T01:49:08;26.87;;;15.10;;
12760;SDS011;6444;49.742;6.114;2023-12-14T01:51:35;28.75;;;17.02;;
12760;SDS011;6444;49.742;6.114;2023-12-14T01:54:01;30.00;;;16.25;;
12760;SDS011;6444;49.742;6.114;2023-12-14T01:56:28;27.90;;;14.87;;
12760;SDS011;6444;49.742;6.114;2023-12-14T01:58:55;27.70;;;16.00;;
12760;SDS011;6444;49.742;6.114;2023-12-14T02:01:28;23.20;;;14.23;;
12760;SDS011;6444;49.742;6.114;2023-12-14T02:03:54;25.60;;;15.30;;
12760;SDS011;6444;49.742;6.114;2023-12-14T02:06:20;29.97;;;16.40;;
12760;SDS011;6444;49.742;6.114;2023-12-14T02:08:47;33.00;;;16.50;;
12760;SDS011;6444;49.742;6.114;2023-12-14T02:11:16;29.30;;;16.50;;
12760;SDS011;6444;49.742;6.114;2023-12-14T02:13:44;29.60;;;16.47;;
12760;SDS011;6444;49.742;6.114;2023-12-14T02:16:10;29.52;;;16.50;;
12760;SDS011;6444;49.742;6.114;2023-12-14T02:18:37;25.48;;;15.23;;
12760;SDS011;6444;49.742;6.114;2023-12-14T02:21:04;29.05;;;16.87;;
12760;SDS011;6444;49.742;6.114;2023-12-14T02:23:31;32.17;;;17.60;;
12760;SDS011;6444;49.742;6.114;2023-12-14T02:25:58;29.48;;;16.55;;
12760;SDS011;6444;49.742;6.114;2023-12-14T02:28:24;30.47;;;16.97;;
12760;SDS011;6444;49.742;6.114;2023-12-14T02:30:51;29.67;;;16.67;;
12760;SDS011;6444;49.742;6.114;2023-12-14T02:33:18;29.92;;;17.87;;
12760;SDS011;6444;49.742;6.114;2023-12-14T02:35:44;32.03;;;18.80;;
12760;SDS011;6444;49.742;6.114;2023-12-14T02:38:12;31.17;;;18.10;;
12760;SDS011;6444;49.742;6.114;2023-12-14T02:40:38;35.93;;;19.43;;
12760;SDS011;6444;49.742;6.114;2023-12-14T02:43:05;41.70;;;20.00;;
12760;SDS011;6444;49.742;6.114;2023-12-14T02:45:31;31.77;;;19.00;;
12760;SDS011;6444;49.742;6.114;2023-12-14T02:47:58;46.67;;;29.17;;
12760;SDS011;6444;49.742;6.114;2023-12-14T02:50:25;39.07;;;21.83;;
12760;SDS011;6444;49.742;6.114;2023-12-14T02:52:51;35.40;;;19.83;;
12760;SDS011;6444;49.742;6.114;2023-12-14T02:55:19;32.97;;;18.45;;
12760;SDS011;6444;49.742;6.114;2023-12-14T02:57:45;33.90;;;18.20;;
12760;SDS011;6444;49.742;6.114;2023-12-14T03:00:12;34.53;;;18.03;;
12760;SDS011;6444;49.742;6.114;2023-12-14T03:02:39;32.57;;;18.10;;
12760;SDS011;6444;49.742;6.114;2023-12-14T03:05:05;31.30;;;17.70;;
12760;SDS011;6444;49.742;6.114;2023-12-14T03:07:33;33.22;;;19.23;;
12760;SDS011;6444;49.742;6.114;2023-12-14T03:09:59;36.03;;;18.67;;
12760;SDS011;6444;49.742;6.114;2023-12-14T03:12:26;35.13;;;19.90;;
12760;SDS011;6444;49.742;6.114;2023-12-14T03:14:53;37.05;;;18.80;;
12760;SDS011;6444;49.742;6.114;2023-12-14T03:17:19;32.83;;;18.27;;
12760;SDS011;6444;49.742;6.114;2023-12-14T03:19:47;37.70;;;18.50;;
12760;SDS011;6444;49.742;6.114;2023-12-14T03:22:13;37.93;;;17.77;;
12760;SDS011;6444;49.742;6.114;2023-12-14T03:24:40;31.70;;;16.13;;
12760;SDS011;6444;49.742;6.114;2023-12-14T03:27:07;35.40;;;17.43;;
12760;SDS011;6444;49.742;6.114;2023-12-14T03:29:33;31.87;;;16.93;;
12760;SDS011;6444;49.742;6.114;2023-12-14T03:32:00;31.80;;;16.40;;
12760;SDS011;6444;49.742;6.114;2023-12-14T03:34:27;37.17;;;18.10;;
12760;SDS011;6444;49.742;6.114;2023-12-14T03:36:53;32.23;;;16.83;;
12760;SDS011;6444;49.742;6.114;2023-12-14T03:39:20;32.10;;;17.10;;
12760;SDS011;6444;49.742;6.114;2023-12-14T03:41:47;30.80;;;16.23;;
12760;SDS011;6444;49.742;6.114;2023-12-14T03:44:14;30.23;;;15.67;;
12760;SDS011;6444;49.742;6.114;2023-12-14T03:46:41;31.03;;;15.57;;
12760;SDS011;6444;49.742;6.114;2023-12-14T03:49:07;35.03;;;16.80;;
12760;SDS011;6444;49.742;6.114;2023-12-14T03:51:34;32.77;;;17.03;;
12760;SDS011;6444;49.742;6.114;2023-12-14T03:54:00;40.07;;;17.23;;
12760;SDS011;6444;49.742;6.114;2023-12-14T03:56:27;30.77;;;15.40;;
12760;SDS011;6444;49.742;6.114;2023-12-14T03:58:54;36.87;;;16.77;;
12760;SDS011;6444;49.742;6.114;2023-12-14T04:01:21;33.27;;;17.50;;
12760;SDS011;6444;49.742;6.114;2023-12-14T04:03:48;49.70;;;25.27;;
12760;SDS011;6444;49.742;6.114;2023-12-14T04:06:15;34.90;;;17.73;;
12760;SDS011;6444;49.742;6.114;2023-12-14T04:08:41;33.10;;;16.80;;
12760;SDS011;6444;49.742;6.114;2023-12-14T04:11:08;33.63;;;16.00;;
12760;SDS011;6444;49.742;6.114;2023-12-14T04:13:34;38.63;;;16.63;;
12760;SDS011;6444;49.742;6.114;2023-12-14T04:16:02;33.20;;;16.73;;
12760;SDS011;6444;49.742;6.114;2023-12-14T04:18:28;33.27;;;16.47;;
12760;SDS011;6444;49.742;6.114;2023-12-14T04:20:55;38.10;;;17.37;;
12760;SDS011;6444;49.742;6.114;2023-12-14T04:23:22;32.63;;;15.60;;
12760;SDS011;6444;49.742;6.114;2023-12-14T04:25:48;35.67;;;15.43;;
12760;SDS011;6444;49.742;6.114;2023-12-14T04:28:15;34.77;;;15.63;;
12760;SDS011;6444;49.742;6.114;2023-12-14T04:30:42;34.80;;;16.30;;
12760;SDS011;6444;49.742;6.114;2023-12-14T04:33:09;31.83;;;15.77;;
12760;SDS011;6444;49.742;6.114;2023-12-14T04:35:36;45.28;;;23.12;;
12760;SDS011;6444;49.742;6.114;2023-12-14T04:38:02;40.40;;;17.87;;
12760;SDS011;6444;49.742;6.114;2023-12-14T04:40:29;35.35;;;14.80;;
12760;SDS011;6444;49.742;6.114;2023-12-14T04:42:55;35.07;;;15.40;;
12760;SDS011;6444;49.742;6.114;2023-12-14T04:45:22;36.17;;;15.83;;
12760;SDS011;6444;49.742;6.114;2023-12-14T04:47:49;31.30;;;15.37;;
12760;SDS011;6444;49.742;6.114;2023-12-14T04:50:16;33.97;;;14.87;;
12760;SDS011;6444;49.742;6.114;2023-12-14T04:52:43;31.53;;;15.33;;
12760;SDS011;6444;49.742;6.114;2023-12-14T04:55:09;36.73;;;16.03;;
12760;SDS011;6444;49.742;6.114;2023-12-14T04:57:36;37.37;;;15.93;;
12760;SDS011;6444;49.742;6.114;2023-12-14T05:00:04;30.10;;;14.93;;
12760;SDS011;6444;49.742;6.114;2023-12-14T05:02:31;31.33;;;14.53;;
12760;SDS011;6444;49.742;6.114;2023-12-14T05:04:56;34.27;;;15.77;;
12760;SDS011;6444;49.742;6.114;2023-12-14T05:07:23;31.93;;;14.67;;
12760;SDS011;6444;49.742;6.114;2023-12-14T05:09:49;32.47;;;14.13;;
12760;SDS011;6444;49.742;6.114;2023-12-14T05:12:16;29.57;;;14.17;;
12760;SDS011;6444;49.742;6.114;2023-12-14T05:14:43;28.00;;;14.50;;
12760;SDS011;6444;49.742;6.114;2023-12-14T05:17:10;32.03;;;13.87;;
12760;SDS011;6444;49.742;6.114;2023-12-14T05:19:37;30.40;;;13.57;;
12760;SDS011;6444;49.742;6.114;2023-12-14T05:22:03;29.53;;;13.80;;
12760;SDS011;6444;49.742;6.114;2023-12-14T05:24:30;30.93;;;14.93;;
12760;SDS011;6444;49.742;6.114;2023-12-14T05:26:56;25.83;;;13.90;;
12760;SDS011;6444;49.742;6.114;2023-12-14T05:29:23;26.93;;;12.63;;
12760;SDS011;6444;49.742;6.114;2023-12-14T05:31:50;41.15;;;18.87;;
12760;SDS011;6444;49.742;6.114;2023-12-14T05:34:16;35.47;;;14.38;;
12760;SDS011;6444;49.742;6.114;2023-12-14T05:36:44;30.60;;;14.20;;
12760;SDS011;6444;49.742;6.114;2023-12-14T05:39:10;31.13;;;12.70;;
12760;SDS011;6444;49.742;6.114;2023-12-14T05:41:40;27.03;;;12.33;;
12760;SDS011;6444;49.742;6.114;2023-12-14T05:44:07;30.73;;;12.73;;
12760;SDS011;6444;49.742;6.114;2023-12-14T05:46:33;29.47;;;12.43;;
12760;SDS011;6444;49.742;6.114;2023-12-14T05:49:00;28.47;;;12.43;;
12760;SDS011;6444;49.742;6.114;2023-12-14T05:53:57;28.80;;;11.97;;
12760;SDS011;6444;49.742;6.114;2023-12-14T05:56:24;44.15;;;18.95;;
12760;SDS011;6444;49.742;6.114;2023-12-14T05:58:50;36.33;;;15.87;;
12760;SDS011;6444;49.742;6.114;2023-12-14T06:01:19;33.97;;;13.63;;
12760;SDS011;6444;49.742;6.114;2023-12-14T06:03:46;40.28;;;19.30;;
12760;SDS011;6444;49.742;6.114;2023-12-14T06:06:13;32.90;;;14.67;;
12760;SDS011;6444;49.742;6.114;2023-12-14T06:08:39;45.67;;;20.08;;
12760;SDS011;6444;49.742;6.114;2023-12-14T06:11:06;44.83;;;20.60;;
12760;SDS011;6444;49.742;6.114;2023-12-14T06:13:33;40.72;;;19.27;;
12760;SDS011;6444;49.742;6.114;2023-12-14T06:15:59;40.53;;;16.23;;
12760;SDS011;6444;49.742;6.114;2023-12-14T06:18:26;41.63;;;17.23;;
12760;SDS011;6444;49.742;6.114;2023-12-14T06:20:52;30.47;;;13.67;;
12760;SDS011;6444;49.742;6.114;2023-12-14T06:23:20;36.47;;;15.13;;
12760;SDS011;6444;49.742;6.114;2023-12-14T06:25:46;33.53;;;13.37;;
12760;SDS011;6444;49.742;6.114;2023-12-14T06:28:13;31.50;;;14.20;;
12760;SDS011;6444;49.742;6.114;2023-12-14T06:30:40;33.07;;;13.67;;
12760;SDS011;6444;49.742;6.114;2023-12-14T06:33:06;33.77;;;13.77;;
12760;SDS011;6444;49.742;6.114;2023-12-14T06:35:34;38.40;;;13.77;;
12760;SDS011;6444;49.742;6.114;2023-12-14T06:38:00;32.10;;;12.67;;
12760;SDS011;6444;49.742;6.114;2023-12-14T06:40:27;34.47;;;13.27;;
12760;SDS011;6444;49.742;6.114;2023-12-14T06:42:54;32.23;;;13.33;;
12760;SDS011;6444;49.742;6.114;2023-12-14T06:45:20;35.20;;;13.33;;
12760;SDS011;6444;49.742;6.114;2023-12-14T06:47:47;31.12;;;12.93;;
12760;SDS011;6444;49.742;6.114;2023-12-14T06:50:14;32.63;;;13.60;;
12760;SDS011;6444;49.742;6.114;2023-12-14T06:52:41;31.07;;;13.07;;
12760;SDS011;6444;49.742;6.114;2023-12-14T06:55:08;36.77;;;14.00;;
12760;SDS011;6444;49.742;6.114;2023-12-14T06:57:34;41.00;;;14.30;;
12760;SDS011;6444;49.742;6.114;2023-12-14T07:00:01;35.63;;;13.03;;
12760;SDS011;6444;49.742;6.114;2023-12-14T07:02:27;39.93;;;14.17;;
12760;SDS011;6444;49.742;6.114;2023-12-14T07:04:54;32.07;;;14.27;;
12760;SDS011;6444;49.742;6.114;2023-12-14T07:07:21;37.17;;;13.93;;
12760;SDS011;6444;49.742;6.114;2023-12-14T07:09:47;35.13;;;14.03;;
12760;SDS011;6444;49.742;6.114;2023-12-14T07:12:14;44.45;;;19.23;;
12760;SDS011;6444;49.742;6.114;2023-12-14T07:14:41;36.90;;;13.47;;
12760;SDS011;6444;49.742;6.114;2023-12-14T07:17:07;43.63;;;19.45;;
12760;SDS011;6444;49.742;6.114;2023-12-14T07:19:34;38.93;;;15.60;;
12760;SDS011;6444;49.742;6.114;2023-12-14T07:22:00;35.40;;;13.97;;
12760;SDS011;6444;49.742;6.114;2023-12-14T07:24:27;35.70;;;14.20;;
12760;SDS011;6444;49.742;6.114;2023-12-14T07:26:54;36.00;;;13.33;;
12760;SDS011;6444;49.742;6.114;2023-12-14T07:29:20;40.70;;;15.03;;
12760;SDS011;6444;49.742;6.114;2023-12-14T07:31:48;37.33;;;13.57;;
12760;SDS011;6444;49.742;6.114;2023-12-14T07:34:14;41.00;;;15.00;;
12760;SDS011;6444;49.742;6.114;2023-12-14T07:36:41;37.30;;;13.90;;
12760;SDS011;6444;49.742;6.114;2023-12-14T07:39:08;41.80;;;14.07;;
12760;SDS011;6444;49.742;6.114;2023-12-14T07:41:34;34.43;;;13.17;;
12760;SDS011;6444;49.742;6.114;2023-12-14T07:44:01;36.20;;;13.53;;
12760;SDS011;6444;49.742;6.114;2023-12-14T07:46:28;37.93;;;14.00;;
12760;SDS011;6444;49.742;6.114;2023-12-14T07:48:54;33.53;;;13.77;;
12760;SDS011;6444;49.742;6.114;2023-12-14T07:51:21;36.57;;;14.27;;
12760;SDS011;6444;49.742;6.114;2023-12-14T07:53:47;38.73;;;13.27;;
12760;SDS011;6444;49.742;6.114;2023-12-14T07:56:14;43.97;;;15.23;;
12760;SDS011;6444;49.742;6.114;2023-12-14T07:58:41;35.63;;;14.37;;
12760;SDS011;6444;49.742;6.114;2023-12-14T08:01:07;39.40;;;13.47;;
12760;SDS011;6444;49.742;6.114;2023-12-14T08:03:34;36.77;;;13.53;;
12760;SDS011;6444;49.742;6.114;2023-12-14T08:06:01;38.60;;;14.20;;
12760;SDS011;6444;49.742;6.114;2023-12-14T08:08:27;32.57;;;12.90;;
12760;SDS011;6444;49.742;6.114;2023-12-14T08:10:54;40.93;;;13.70;;
12760;SDS011;6444;49.742;6.114;2023-12-14T08:13:21;36.90;;;12.47;;
12760;SDS011;6444;49.742;6.114;2023-12-14T08:15:48;36.40;;;14.23;;
12760;SDS011;6444;49.742;6.114;2023-12-14T08:18:15;33.00;;;12.70;;
12760;SDS011;6444;49.742;6.114;2023-12-14T08:20:41;33.73;;;12.53;;
12760;SDS011;6444;49.742;6.114;2023-12-14T08:23:08;37.03;;;14.00;;
12760;SDS011;6444;49.742;6.114;2023-12-14T08:25:35;34.37;;;13.40;;
12760;SDS011;6444;49.742;6.114;2023-12-14T08:28:02;37.20;;;15.03;;
12760;SDS011;6444;49.742;6.114;2023-12-14T08:30:28;29.73;;;12.63;;
12760;SDS011;6444;49.742;6.114;2023-12-14T08:32:55;36.27;;;14.40;;
12760;SDS011;6444;49.742;6.114;2023-12-14T08:35:22;33.97;;;14.40;;
12760;SDS011;6444;49.742;6.114;2023-12-14T08:37:49;35.47;;;13.82;;
12760;SDS011;6444;49.742;6.114;2023-12-14T08:40:16;35.47;;;14.57;;
12760;SDS011;6444;49.742;6.114;2023-12-14T08:42:42;34.10;;;14.23;;
12760;SDS011;6444;49.742;6.114;2023-12-14T08:45:09;40.47;;;16.40;;
12760;SDS011;6444;49.742;6.114;2023-12-14T08:47:36;51.80;;;25.40;;
12760;SDS011;6444;49.742;6.114;2023-12-14T08:50:02;43.60;;;18.70;;
12760;SDS011;6444;49.742;6.114;2023-12-14T08:52:29;41.63;;;23.15;;
12760;SDS011;6444;49.742;6.114;2023-12-14T08:54:56;44.23;;;22.47;;
12760;SDS011;6444;49.742;6.114;2023-12-14T08:57:22;42.30;;;20.30;;
12760;SDS011;6444;49.742;6.114;2023-12-14T08:59:49;38.50;;;18.17;;
12760;SDS011;6444;49.742;6.114;2023-12-14T09:02:15;36.25;;;16.83;;
12760;SDS011;6444;49.742;6.114;2023-12-14T09:04:42;30.77;;;15.17;;
12760;SDS011;6444;49.742;6.114;2023-12-14T09:07:09;32.00;;;13.20;;
12760;SDS011;6444;49.742;6.114;2023-12-14T09:09:36;30.55;;;14.15;;
12760;SDS011;6444;49.742;6.114;2023-12-14T09:12:03;28.48;;;14.48;;
12760;SDS011;6444;49.742;6.114;2023-12-14T09:14:29;30.70;;;13.60;;
12760;SDS011;6444;49.742;6.114;2023-12-14T09:16:56;29.65;;;12.70;;
12760;SDS011;6444;49.742;6.114;2023-12-14T09:19:23;30.73;;;13.40;;
12760;SDS011;6444;49.742;6.114;2023-12-14T09:21:49;29.42;;;12.73;;
12760;SDS011;6444;49.742;6.114;2023-12-14T09:24:17;26.55;;;12.25;;
12760;SDS011;6444;49.742;6.114;2023-12-14T09:26:43;26.67;;;11.82;;
12760;SDS011;6444;49.742;6.114;2023-12-14T09:29:10;24.90;;;12.48;;
12760;SDS011;6444;49.742;6.114;2023-12-14T09:31:37;21.17;;;10.75;;
12760;SDS011;6444;49.742;6.114;2023-12-14T09:34:03;19.23;;;9.20;;
12760;SDS011;6444;49.742;6.114;2023-12-14T09:36:30;17.40;;;8.95;;
12760;SDS011;6444;49.742;6.114;2023-12-14T09:38:56;20.70;;;8.82;;
12760;SDS011;6444;49.742;6.114;2023-12-14T09:41:23;24.83;;;9.40;;
12760;SDS011;6444;49.742;6.114;2023-12-14T09:43:50;13.32;;;6.37;;
12760;SDS011;6444;49.742;6.114;2023-12-14T09:46:16;11.00;;;6.70;;
12760;SDS011;6444;49.742;6.114;2023-12-14T09:48:43;8.63;;;4.85;;
12760;SDS011;6444;49.742;6.114;2023-12-14T09:51:10;6.60;;;4.00;;
12760;SDS011;6444;49.742;6.114;2023-12-14T09:53:36;7.30;;;4.20;;
12760;SDS011;6444;49.742;6.114;2023-12-14T09:56:03;7.18;;;3.60;;
12760;SDS011;6444;49.742;6.114;2023-12-14T09:58:33;5.43;;;3.47;;
12760;SDS011;6444;49.742;6.114;2023-12-14T10:01:00;5.70;;;3.67;;
12760;SDS011;6444;49.742;6.114;2023-12-14T10:03:27;6.35;;;3.75;;
12760;SDS011;6444;49.742;6.114;2023-12-14T10:05:54;7.47;;;3.78;;
12760;SDS011;6444;49.742;6.114;2023-12-14T10:08:22;6.43;;;4.03;;
12760;SDS011;6444;49.742;6.114;2023-12-14T10:10:50;7.15;;;3.85;;
12760;SDS011;6444;49.742;6.114;2023-12-14T10:13:16;6.75;;;4.20;;
12760;SDS011;6444;49.742;6.114;2023-12-14T10:15:43;8.02;;;4.25;;
12760;SDS011;6444;49.742;6.114;2023-12-14T10:18:09;6.68;;;4.05;;
12760;SDS011;6444;49.742;6.114;2023-12-14T10:20:35;7.60;;;4.65;;
12760;SDS011;6444;49.742;6.114;2023-12-14T10:23:05;5.60;;;3.92;;
12760;SDS011;6444;49.742;6.114;2023-12-14T10:25:31;4.72;;;3.37;;
12760;SDS011;6444;49.742;6.114;2023-12-14T10:27:58;6.95;;;4.25;;
12760;SDS011;6444;49.742;6.114;2023-12-14T10:30:24;9.63;;;4.32;;
12760;SDS011;6444;49.742;6.114;2023-12-14T10:32:52;6.10;;;4.22;;
12760;SDS011;6444;49.742;6.114;2023-12-14T10:35:18;6.18;;;4.57;;
12760;SDS011;6444;49.742;6.114;2023-12-14T10:37:45;7.57;;;4.93;;
12760;SDS011;6444;49.742;6.114;2023-12-14T10:40:13;8.95;;;4.43;;
12760;SDS011;6444;49.742;6.114;2023-12-14T10:42:41;7.07;;;4.47;;
12760;SDS011;6444;49.742;6.114;2023-12-14T10:45:06;7.75;;;5.25;;
12760;SDS011;6444;49.742;6.114;2023-12-14T10:47:32;6.22;;;4.53;;
12760;SDS011;6444;49.742;6.114;2023-12-14T10:49:59;4.68;;;3.42;;
12760;SDS011;6444;49.742;6.114;2023-12-14T10:52:26;6.10;;;4.30;;
12760;SDS011;6444;49.742;6.114;2023-12-14T10:54:53;6.78;;;4.65;;
12760;SDS011;6444;49.742;6.114;2023-12-14T10:57:19;8.90;;;6.50;;
12760;SDS011;6444;49.742;6.114;2023-12-14T10:59:48;7.78;;;5.43;;
12760;SDS011;6444;49.742;6.114;2023-12-14T11:02:12;7.53;;;5.37;;
12760;SDS011;6444;49.742;6.114;2023-12-14T11:05:01;7.85;;;5.70;;
12760;SDS011;6444;49.742;6.114;2023-12-14T11:07:42;7.67;;;5.43;;
12760;SDS011;6444;49.742;6.114;2023-12-14T11:09:47;8.65;;;6.35;;
12760;SDS011;6444;49.742;6.114;2023-12-14T11:12:14;7.15;;;5.10;;
12760;SDS011;6444;49.742;6.114;2023-12-14T11:14:40;9.20;;;7.35;;
12760;SDS011;6444;49.742;6.114;2023-12-14T11:17:07;9.88;;;6.25;;
12760;SDS011;6444;49.742;6.114;2023-12-14T11:19:35;8.48;;;5.85;;
12760;SDS011;6444;49.742;6.114;2023-12-14T11:22:13;10.13;;;6.60;;
12760;SDS011;6444;49.742;6.114;2023-12-14T11:24:42;7.45;;;5.70;;
12760;SDS011;6444;49.742;6.114;2023-12-14T11:27:09;8.68;;;5.80;;
12760;SDS011;6444;49.742;6.114;2023-12-14T11:29:37;9.80;;;7.40;;
12760;SDS011;6444;49.742;6.114;2023-12-14T11:32:02;11.80;;;6.93;;
12760;SDS011;6444;49.742;6.114;2023-12-14T11:34:28;9.40;;;6.30;;
12760;SDS011;6444;49.742;6.114;2023-12-14T11:36:55;8.48;;;6.25;;
12760;SDS011;6444;49.742;6.114;2023-12-14T11:39:22;8.43;;;5.93;;
12760;SDS011;6444;49.742;6.114;2023-12-14T11:42:02;7.20;;;5.10;;
12760;SDS011;6444;49.742;6.114;2023-12-14T11:44:28;7.85;;;6.00;;
12760;SDS011;6444;49.742;6.114;2023-12-14T11:46:55;6.40;;;5.05;;
12760;SDS011;6444;49.742;6.114;2023-12-14T11:49:23;7.82;;;5.20;;
12760;SDS011;6444;49.742;6.114;2023-12-14T11:51:51;8.23;;;5.30;;
12760;SDS011;6444;49.742;6.114;2023-12-14T11:54:17;9.13;;;6.70;;
12760;SDS011;6444;49.742;6.114;2023-12-14T11:56:47;7.37;;;6.00;;
12760;SDS011;6444;49.742;6.114;2023-12-14T11:59:16;6.70;;;5.25;;
12760;SDS011;6444;49.742;6.114;2023-12-14T12:01:55;7.18;;;5.97;;
12760;SDS011;6444;49.742;6.114;2023-12-14T12:04:21;6.50;;;4.75;;
12760;SDS011;6444;49.742;6.114;2023-12-14T12:06:48;6.10;;;4.72;;
12760;SDS011;6444;49.742;6.114;2023-12-14T12:09:31;6.32;;;5.40;;
12760;SDS011;6444;49.742;6.114;2023-12-14T12:11:41;4.95;;;4.20;;
12760;SDS011;6444;49.742;6.114;2023-12-14T12:14:07;7.07;;;4.70;;
12760;SDS011;6444;49.742;6.114;2023-12-14T12:16:34;5.00;;;4.22;;
12760;SDS011;6444;49.742;6.114;2023-12-14T12:19:01;8.20;;;4.45;;
12760;SDS011;6444;49.742;6.114;2023-12-14T12:21:27;6.12;;;3.65;;
12760;SDS011;6444;49.742;6.114;2023-12-14T12:23:54;6.12;;;5.30;;
12760;SDS011;6444;49.742;6.114;2023-12-14T12:26:21;5.28;;;4.75;;
12760;SDS011;6444;49.742;6.114;2023-12-14T12:28:48;6.05;;;4.40;;
12760;SDS011;6444;49.742;6.114;2023-12-14T12:31:15;5.10;;;4.18;;
12760;SDS011;6444;49.742;6.114;2023-12-14T12:33:41;7.77;;;4.03;;
12760;SDS011;6444;49.742;6.114;2023-12-14T12:36:08;5.07;;;3.90;;
12760;SDS011;6444;49.742;6.114;2023-12-14T12:38:35;5.12;;;3.40;;
12760;SDS011;6444;49.742;6.114;2023-12-14T12:41:02;9.40;;;7.67;;
12760;SDS011;6444;49.742;6.114;2023-12-14T12:43:29;26.92;;;20.30;;
12760;SDS011;6444;49.742;6.114;2023-12-14T12:45:55;4.65;;;3.92;;
12760;SDS011;6444;49.742;6.114;2023-12-14T12:48:22;4.22;;;3.50;;
12760;SDS011;6444;49.742;6.114;2023-12-14T12:50:49;4.80;;;3.50;;
12760;SDS011;6444;49.742;6.114;2023-12-14T12:53:15;4.82;;;3.08;;
12760;SDS011;6444;49.742;6.114;2023-12-14T12:55:43;4.90;;;3.40;;
12760;SDS011;6444;49.742;6.114;2023-12-14T12:58:09;5.67;;;2.90;;
12760;SDS011;6444;49.742;6.114;2023-12-14T13:00:36;3.67;;;2.70;;
12760;SDS011;6444;49.742;6.114;2023-12-14T13:03:03;5.28;;;3.20;;
12760;SDS011;6444;49.742;6.114;2023-12-14T13:05:30;4.17;;;3.20;;
12760;SDS011;6444;49.742;6.114;2023-12-14T13:07:57;3.90;;;3.50;;
12760;SDS011;6444;49.742;6.114;2023-12-14T13:10:23;4.60;;;3.80;;
12760;SDS011;6444;49.742;6.114;2023-12-14T13:12:50;4.57;;;3.70;;
12760;SDS011;6444;49.742;6.114;2023-12-14T13:15:16;6.05;;;4.10;;
12760;SDS011;6444;49.742;6.114;2023-12-14T13:17:44;5.57;;;4.12;;
12760;SDS011;6444;49.742;6.114;2023-12-14T13:20:10;7.77;;;3.80;;
12760;SDS011;6444;49.742;6.114;2023-12-14T13:22:37;4.33;;;3.10;;
12760;SDS011;6444;49.742;6.114;2023-12-14T13:25:04;4.87;;;3.67;;
12760;SDS011;6444;49.742;6.114;2023-12-14T13:27:31;4.25;;;3.25;;
12760;SDS011;6444;49.742;6.114;2023-12-14T13:29:57;6.40;;;5.17;;
12760;SDS011;6444;49.742;6.114;2023-12-14T13:32:24;11.83;;;9.53;;
12760;SDS011;6444;49.742;6.114;2023-12-14T13:34:51;24.53;;;20.17;;
12760;SDS011;6444;49.742;6.114;2023-12-14T13:37:18;5.30;;;4.07;;
12760;SDS011;6444;49.742;6.114;2023-12-14T13:39:45;8.07;;;4.67;;
12760;SDS011;6444;49.742;6.114;2023-12-14T13:42:11;4.77;;;4.00;;
12760;SDS011;6444;49.742;6.114;2023-12-14T13:44:39;5.70;;;3.90;;
12760;SDS011;6444;49.742;6.114;2023-12-14T13:47:06;6.63;;;4.77;;
12760;SDS011;6444;49.742;6.114;2023-12-14T13:49:32;6.23;;;4.47;;
12760;SDS011;6444;49.742;6.114;2023-12-14T13:51:58;6.90;;;4.40;;
12760;SDS011;6444;49.742;6.114;2023-12-14T13:54:26;7.07;;;4.60;;
12760;SDS011;6444;49.742;6.114;2023-12-14T13:56:52;7.10;;;5.60;;
12760;SDS011;6444;49.742;6.114;2023-12-14T13:59:19;6.50;;;5.27;;
12760;SDS011;6444;49.742;6.114;2023-12-14T14:01:46;7.03;;;5.20;;
12760;SDS011;6444;49.742;6.114;2023-12-14T14:04:13;7.90;;;5.23;;
12760;SDS011;6444;49.742;6.114;2023-12-14T14:06:40;7.27;;;4.90;;
12760;SDS011;6444;49.742;6.114;2023-12-14T14:09:06;6.87;;;5.47;;
12760;SDS011;6444;49.742;6.114;2023-12-14T14:11:33;8.52;;;6.62;;
12760;SDS011;6444;49.742;6.114;2023-12-14T14:14:00;8.17;;;5.83;;
12760;SDS011;6444;49.742;6.114;2023-12-14T14:16:27;7.00;;;5.00;;
12760;SDS011;6444;49.742;6.114;2023-12-14T14:18:54;6.57;;;4.73;;
12760;SDS011;6444;49.742;6.114;2023-12-14T14:21:20;9.07;;;5.00;;
12760;SDS011;6444;49.742;6.114;2023-12-14T14:23:47;7.57;;;5.12;;
12760;SDS011;6444;49.742;6.114;2023-12-14T14:26:13;5.40;;;4.50;;
12760;SDS011;6444;49.742;6.114;2023-12-14T14:28:41;6.32;;;4.55;;
12760;SDS011;6444;49.742;6.114;2023-12-14T14:31:07;7.27;;;4.40;;
12760;SDS011;6444;49.742;6.114;2023-12-14T14:33:34;7.30;;;4.87;;
12760;SDS011;6444;49.742;6.114;2023-12-14T14:36:01;6.63;;;4.53;;
12760;SDS011;6444;49.742;6.114;2023-12-14T14:38:28;7.32;;;4.82;;
12760;SDS011;6444;49.742;6.114;2023-12-14T14:40:55;8.45;;;4.78;;
12760;SDS011;6444;49.742;6.114;2023-12-14T14:43:21;5.93;;;4.45;;